Logo AVAMET
Benvolgut visitant, si us plau, ingressa Recuperar contrasenya

València Jesús

Dades diàries. Acumulats / Últims 30 dies disponibles

Data Temperatura (°C) Humitat rel. (%) Pressió rel. (hPa) Vent (km/h) Precipitació
Mínima Mitjana Màxima Amplitud
tèrmica
Mínima Mitjana Màxima Mínima Mitjana Màxima Predom. Mitjana Ràfega
màxima
Total
(mm)
Índex-n
Mínima Mitjana Màxima Mínima Mitjana Màxima n
0 a 1
P0 max
mm 5'
Dades mensuals acumulades fins l'últim dia disponible
09/2019 16,2 20,9 24,0 21,9 21,2 27,4 32,7 16,5 1 62 95 1.005 1.017 1.026   5,1 54,7 82,6
Dades anuals acumulades fins l'últim dia disponible
2019 2,5 15,3 27,5 19,4 12,2 23,8 41,7 39,2 0 62 98 991 1.016 1.034   4,2 67,6 190,2
Últims 30 dies disponibles
17-09-2019 20,8     22,3     28,8 8,0 1 69 89 1.013 1.015 1.017 SSE 1,7 16,1 0,0
16-09-2019 22,3     22,0     28,3 6,0 1 67 90 1.016 1.017 1.018 E 3,5 27,4 0,0
15-09-2019 22,3     21,0     25,9 3,6 1 68 90 1.017 1.018 1.021 ENE 10,3 38,6 0,0
14-09-2019 18,6     17,5     25,1 6,5 1 59 90 1.019 1.022 1.025 E 7,2 40,2 0,0
13-09-2019 20,6     18,8     23,4 2,8 1 65 89 1.020 1.022 1.024 ENE 10,8 54,7 10,2 0,64 1,40
12-09-2019 18,5     19,0     25,4 6,9 1 63 95 1.020 1.023 1.026 ENE 9,1 46,7 0,50 2,10
11-09-2019 16,2     16,5     21,2 5,0 1 66 92 1.011 1.016 1.021 E 7,3 40,2 13,4
10-09-2019 20,5     21,7     26,3 5,8 1 37 78 1.005 1.008 1.012 SE 5,9 41,8 0,0
09-09-2019 20,9     23,7     32,4 11,5 1 60 80 1.008 1.012 1.016 SE 3,0 19,3 0,0
08-09-2019 20,3     22,2     27,3 7,0 1 64 87 1.014 1.016 1.018 SE 3,2 22,5 0,0
07-09-2019 18,8     20,3     25,8 7,0 1 64 95 1.016 1.018 1.019 E 3,1 33,8 56,0 0,35 17,20
06-09-2019 20,8     21,9     26,7 5,9 1 56 79 1.016 1.018 1.019 SE 3,9 17,7 0,0
05-09-2019 23,9     24,0     28,9 5,0 1 57 82 1.014 1.016 1.017 ESE 4,0 24,1 0,0
04-09-2019 23,6     24,1     30,3 6,7 1 66 84 1.014 1.016 1.019 ESE 3,1 17,7 0,0
03-09-2019 24,0     23,4     29,4 5,4 1 63 81 1.017 1.018 1.020 ESE 2,6 17,7 0,0
02-09-2019 20,9     25,4     28,5 7,6 60 71 86 1.013 1.016 1.018 ESE 4,1 25,7 3,0 0,32 0,60
01-09-2019 22,6     27,9     32,7 10,1 39 59 80 1.010 1.012 1.013 SSE 4,1 33,8 0,0
31-08-2019 22,4     28,2     32,6 10,2 41 55 75 1.012 1.014 1.016 S 2,5 17,7 0,0
30-08-2019 22,8     27,4     31,4 8,6 43 61 72 1.016 1.017 1.019 SSE 2,8 22,5 0,0
29-08-2019 21,4     26,4     30,2 8,8 46 66 81 1.016 1.017 1.018 SSE 3,4 20,9 0,0
28-08-2019 18,8     24,7     29,4 10,6 47 67 86 1.014 1.015 1.017 SSO 2,1 16,1 0,0
27-08-2019 18,9     23,5     29,1 10,2 58 74 86 1.012 1.014 1.015 S 3,0 37,0 10,2 0,84 3,40
26-08-2019 22,3     26,0     28,5 6,2 66 75 82 1.013 1.014 1.016 ESE 3,1 22,5 0,0
25-08-2019 21,8     26,7     30,6 8,8 49 67 83 1.014 1.016 1.017 S 2,6 20,9 0,0
24-08-2019 21,4     26,3     30,3 8,9 43 63 78 1.015 1.017 1.018 S 2,2 17,7 0,0
23-08-2019 20,4     26,3     31,2 10,8 32 59 80 1.016 1.018 1.019 SSE 2,7 19,3 0,0
22-08-2019 20,0     25,5     29,8 9,8 38 64 82 1.017 1.018 1.019 S 2,9 25,7 0,0
21-08-2019 22,3     24,7     27,3 5,0 58 71 87 1.017 1.018 1.019 ESE 4,7 29,0 1,2 0,42 0,40
20-08-2019 24,6     25,9     28,9 4,3 56 71 83 1.013 1.015 1.019 E 13,3 54,7 0,0
19-08-2019 25,2     27,5     30,4 5,2 66 78 87 1.010 1.012 1.014 ESE 7,0 27,4 0,0
Últims 13 mesos disponibles
08/2019 18,8 23,1 27,5 27,2 27,3 31,1 41,7 22,9 40 68 78 1.009 1.014 1.018 ESE 4,1 54,7 11,4
07/2019 21,9 23,4 25,8 27,2 28,3 31,1 37,8 15,9 49 65 75 1.003 1.012 1.019 SSE 4,0 41,8 5,0
06/2019 14,1 18,9 23,0 23,0 21,7 27,2 35,3 21,2 38 63 79 1.007 1.014 1.020 SSE 4,2 57,9 0,0
05/2019 10,1 15,2 20,9 19,1 19,0 23,1 32,7 22,6 45 65 84 1.003 1.014 1.023 SE 4,2 49,9 16,6
04/2019 9,2 11,7 14,5 15,4 13,8 19,5 29,8 20,6 42 65 96 998 1.010 1.018 S 6,4 67,6 59,4
03/2019 7,3 10,4 16,2 15,4 13,4 20,2 29,3 22,0 41 56 84 1.008 1.021 1.028 SSE 3,6 56,3 15,0
02/2019 4,9 8,1 11,1 13,2 12,8 18,2 25,4 20,5 33 61 74 993 1.023 1.032 ESE 3,4 59,5 0,0
01/2019 2,5 7,2 12,9 12,3 12,2 17,1 20,6 18,1 37 55 74 1.000 1.017 1.029 SE 3,5 54,7 0,2
12/2018 5,4 9,4 12,8 13,4 14,4 18,9 23,7 18,3 48 68 82 1.007 1.024 1.029 SO 2,5 43,5 10,0
11/2018 7,3 11,8 16,5 14,9 14,8 18,9 24,3 17,0 50 71 93 1.000 1.014 1.022 SSO 4,1 57,9 97,4
10/2018 7,4 15,5 19,5 19,1 13,8 23,2 28,1 20,7 44 70 90 999 1.013 1.024 3,1 49,9 169,0
09/2018 17,7 21,6 23,9 24,8 25,1 28,5 32,5 14,8 68 75 84 1.010 1.017 1.027 3,6 39,0 156,2
08/2018 20,9 24,3 26,6 27,5 27,6 31,2 37,4 16,5 51 68 78 1.010 1.015 1.019 4,3 55,0 15,8
Tots els anys disponibles
2017 1,4 15,0 26,6 19,1 9,3 23,3 36,8 35,4 31 64 90 996 1.017 1.035 S 1,1 69,0 316,0
2016 3,3 15,1 25,8 18,9 11,1 22,8 36,6 33,3 32 64 89 994 1.017 1.036 71,0 569,8
Temperatura (°C)
Humitat relativa (%)
Velocitat del vent i ràfega màxima (km/h)
Direcció del vent (°)
Pressió (hPa)
Precipitació (mm)
Nota sobre les dades: s'avisa a l'usuari de la provisionalitat i no oficialitat d'aquestes dades
Logo AVAMET blanc
Web allotjada a Sollutia
Llicència de Creative CommonsLa web d'AVAMET i els seus continguts estan subjectes a una llicència de
Reconeixement - No Comercial - Compartir igual
Properes estacions: Altea - Club Nàutic d'Altea (Soci),    - - - - -      Últimes estacions: Llíria - Bodegas del Campo (Soci), La Pobla Tornesa (Soci), Quartell (Soci), Alzira - Est (Soci/Inforatge), San Miguel de las Salinas (MeteOrihuela), Segorbe (Inforatge), Alcalà de Xivert - Alcossebre (Inforatge), Moixent - la Foia (Soci), Callosa d'en Sarrià - Centre (Soci) - - -